createdAt,value
2018-07-20T00:00:52.301Z,18.28
2018-07-20T00:01:52.287Z,18.29
2018-07-20T00:02:52.300Z,18.26
2018-07-20T00:03:52.294Z,18.23
2018-07-20T00:04:52.296Z,18.37
2018-07-20T00:05:52.301Z,18.20
2018-07-20T00:06:52.306Z,18.03
2018-07-20T00:07:52.317Z,17.98
2018-07-20T00:08:52.312Z,17.97
2018-07-20T00:09:52.324Z,17.86
2018-07-20T00:10:52.321Z,17.92
2018-07-20T00:11:52.347Z,17.87
2018-07-20T00:12:52.323Z,18.01
2018-07-20T00:13:52.335Z,17.95
2018-07-20T00:14:52.335Z,17.98
2018-07-20T00:15:52.339Z,18.03
2018-07-20T00:16:52.342Z,18.15
2018-07-20T00:17:52.346Z,18.11
2018-07-20T00:18:52.358Z,18.11
2018-07-20T00:19:52.350Z,18.11
2018-07-20T00:20:52.352Z,18.18
2018-07-20T00:21:52.381Z,18.15
2018-07-20T00:22:52.372Z,18.11
2018-07-20T00:23:52.367Z,18.20
2018-07-20T00:24:52.381Z,18.15
2018-07-20T00:25:52.371Z,18.11
2018-07-20T00:26:52.377Z,18.08
2018-07-20T00:27:52.387Z,18.08
2018-07-20T00:28:52.381Z,18.11
2018-07-20T00:29:52.384Z,18.13
2018-07-20T00:30:52.391Z,18.13
2018-07-20T00:31:52.392Z,17.97
2018-07-20T00:32:52.395Z,18.03
2018-07-20T00:33:52.401Z,17.95
2018-07-20T00:34:52.402Z,17.97
2018-07-20T00:35:52.433Z,17.92
2018-07-20T00:36:52.422Z,17.98
2018-07-20T00:37:52.414Z,17.98
2018-07-20T00:38:52.424Z,17.89
2018-07-20T00:39:52.434Z,17.86
2018-07-20T00:40:52.432Z,17.85
2018-07-20T00:41:52.439Z,17.82
2018-07-20T00:42:52.427Z,17.70
2018-07-20T00:43:52.432Z,17.72
2018-07-20T00:44:52.437Z,17.68
2018-07-20T00:45:52.439Z,17.68
2018-07-20T00:46:52.456Z,17.60
2018-07-20T00:47:52.444Z,17.68
2018-07-20T00:48:52.464Z,17.72
2018-07-20T00:49:52.457Z,17.68
2018-07-20T00:50:52.457Z,17.68
2018-07-20T00:51:52.459Z,17.72
2018-07-20T00:52:52.462Z,17.65
2018-07-20T00:53:52.474Z,17.68
2018-07-20T00:54:52.479Z,17.71
2018-07-20T00:55:52.479Z,17.70
2018-07-20T00:56:52.478Z,17.76
2018-07-20T00:57:52.481Z,17.67
2018-07-20T00:58:52.481Z,17.76
2018-07-20T00:59:52.507Z,17.74
2018-07-20T01:00:52.704Z,17.67
2018-07-20T01:01:52.504Z,17.76
2018-07-20T01:02:52.507Z,17.64
2018-07-20T01:03:52.511Z,17.59
2018-07-20T01:04:52.703Z,17.48
2018-07-20T01:05:52.523Z,17.42
2018-07-20T01:06:52.523Z,17.34
2018-07-20T01:07:52.519Z,17.27
2018-07-20T01:08:52.514Z,17.14
2018-07-20T01:09:52.548Z,17.02
2018-07-20T01:10:52.523Z,17.02
2018-07-20T01:11:52.537Z,17.04
2018-07-20T01:12:52.525Z,16.99
2018-07-20T01:13:52.529Z,16.97
2018-07-20T01:14:52.535Z,16.87
2018-07-20T01:15:52.538Z,16.89
2018-07-20T01:16:52.539Z,16.89
2018-07-20T01:17:52.560Z,16.86
2018-07-20T01:18:52.560Z,16.87
2018-07-20T01:19:52.561Z,16.84
2018-07-20T01:20:52.552Z,16.86
2018-07-20T01:21:52.554Z,16.87
2018-07-20T01:22:52.587Z,16.81
2018-07-20T01:23:52.558Z,16.71
2018-07-20T01:24:52.591Z,16.78
2018-07-20T01:25:52.565Z,16.72
2018-07-20T01:26:52.577Z,16.60
2018-07-20T01:27:52.602Z,16.51
2018-07-20T01:28:52.577Z,16.50
2018-07-20T01:29:52.578Z,16.54
2018-07-20T01:30:52.579Z,16.39
2018-07-20T01:31:52.582Z,16.43
2018-07-20T01:32:52.591Z,16.42
2018-07-20T01:33:52.602Z,16.53
2018-07-20T01:34:52.792Z,16.56
2018-07-20T01:35:52.605Z,16.60
2018-07-20T01:36:52.607Z,16.68
2018-07-20T01:37:52.600Z,16.75
2018-07-20T01:38:52.603Z,16.76
2018-07-20T01:39:52.629Z,16.75
2018-07-20T01:40:52.628Z,16.74
2018-07-20T01:41:52.613Z,16.57
2018-07-20T01:42:52.613Z,16.57
2018-07-20T01:43:52.618Z,16.47
2018-07-20T01:44:52.618Z,16.46
2018-07-20T01:45:52.623Z,16.38
2018-07-20T01:46:52.635Z,16.39
2018-07-20T01:47:52.640Z,16.42
2018-07-20T01:48:52.641Z,16.38
2018-07-20T01:49:52.633Z,16.46
2018-07-20T01:50:52.660Z,16.56
2018-07-20T01:51:52.645Z,16.60
2018-07-20T01:52:52.644Z,16.64
2018-07-20T01:53:52.668Z,16.57
2018-07-20T01:54:52.645Z,16.61
2018-07-20T01:55:52.660Z,16.58
2018-07-20T01:56:52.665Z,16.58
2018-07-20T01:57:52.658Z,16.60
2018-07-20T01:58:52.657Z,16.56
2018-07-20T01:59:52.658Z,16.53
2018-07-20T02:00:52.665Z,16.39
2018-07-20T02:01:52.665Z,16.32
2018-07-20T02:02:52.684Z,16.39
2018-07-20T02:03:52.689Z,16.53
2018-07-20T02:04:52.680Z,16.54
2018-07-20T02:05:52.678Z,16.57
2018-07-20T02:06:52.688Z,16.78
2018-07-20T02:07:52.682Z,16.78
2018-07-20T02:08:52.689Z,16.84
2018-07-20T02:09:52.705Z,16.93
2018-07-20T02:10:52.692Z,16.96
2018-07-20T02:11:52.694Z,17.04
2018-07-20T02:12:52.725Z,17.01
2018-07-20T02:13:52.722Z,17.12
2018-07-20T02:14:52.701Z,17.14
2018-07-20T02:15:52.724Z,17.29
2018-07-20T02:16:52.731Z,17.27
2018-07-20T02:17:52.709Z,17.24
2018-07-20T02:18:52.712Z,17.23
2018-07-20T02:19:52.716Z,17.33
2018-07-20T02:20:52.748Z,17.30
2018-07-20T02:21:52.722Z,17.31
2018-07-20T02:22:52.738Z,17.24
2018-07-20T02:23:52.729Z,17.23
2018-07-20T02:24:52.727Z,17.12
2018-07-20T02:25:52.750Z,17.14
2018-07-20T02:26:52.734Z,17.19
2018-07-20T02:27:52.735Z,17.22
2018-07-20T02:28:52.747Z,17.27
2018-07-20T02:29:52.755Z,17.20
2018-07-20T02:30:52.762Z,17.26
2018-07-20T02:31:52.761Z,17.22
2018-07-20T02:32:52.766Z,16.99
2018-07-20T02:33:52.767Z,16.94
2018-07-20T02:34:52.769Z,16.89
2018-07-20T02:35:52.760Z,16.81
2018-07-20T02:36:52.762Z,16.84
2018-07-20T02:37:52.779Z,16.76
2018-07-20T02:38:52.770Z,16.74
2018-07-20T02:39:52.770Z,16.66
2018-07-20T02:40:52.775Z,16.66
2018-07-20T02:41:52.780Z,16.58
2018-07-20T02:42:52.789Z,16.58
2018-07-20T02:43:52.783Z,16.53
2018-07-20T02:44:52.789Z,16.35
2018-07-20T02:45:52.787Z,16.36
2018-07-20T02:46:52.793Z,16.23
2018-07-20T02:47:52.803Z,16.20
2018-07-20T02:48:52.796Z,16.12
2018-07-20T02:49:52.813Z,15.90
2018-07-20T02:50:52.803Z,15.73
2018-07-20T02:51:52.821Z,15.65
2018-07-20T02:52:52.821Z,15.57
2018-07-20T02:53:52.811Z,15.51
2018-07-20T02:54:52.845Z,15.43
2018-07-20T02:55:52.814Z,15.49
2018-07-20T02:56:52.829Z,15.46
2018-07-20T02:57:52.823Z,15.58
2018-07-20T02:58:52.820Z,15.52
2018-07-20T02:59:52.830Z,15.58
2018-07-20T03:00:52.840Z,15.54
2018-07-20T03:01:52.829Z,15.43
2018-07-20T03:02:52.849Z,15.46
2018-07-20T03:03:52.838Z,15.39
2018-07-20T03:04:52.851Z,15.39
2018-07-20T03:05:52.840Z,15.29
2018-07-20T03:06:52.841Z,15.27
2018-07-20T03:07:52.851Z,15.19
2018-07-20T03:08:52.919Z,15.22
2018-07-20T03:09:52.861Z,15.19
2018-07-20T03:10:52.862Z,15.07
2018-07-20T03:11:52.854Z,15.18
2018-07-20T03:12:52.859Z,15.17
2018-07-20T03:13:52.858Z,15.07
2018-07-20T03:14:52.871Z,15.06
2018-07-20T03:15:52.872Z,15.00
2018-07-20T03:16:52.865Z,15.10
2018-07-20T03:17:52.875Z,15.06
2018-07-20T03:18:52.896Z,15.03
2018-07-20T03:19:52.878Z,15.06
2018-07-20T03:20:52.916Z,14.92
2018-07-20T03:21:52.901Z,14.99
2018-07-20T03:22:52.875Z,14.99
2018-07-20T03:23:52.879Z,15.04
2018-07-20T03:24:52.881Z,14.97
2018-07-20T03:25:52.892Z,14.91
2018-07-20T03:26:52.883Z,14.86
2018-07-20T03:27:52.885Z,14.84
2018-07-20T03:28:52.888Z,14.79
2018-07-20T03:29:52.896Z,14.72
2018-07-20T03:30:52.893Z,14.69
2018-07-20T03:31:52.895Z,14.70
2018-07-20T03:32:52.951Z,14.62
2018-07-20T03:33:52.908Z,14.66
2018-07-20T03:34:52.899Z,14.72
2018-07-20T03:35:52.912Z,14.73
2018-07-20T03:36:52.905Z,14.73
2018-07-20T03:37:52.907Z,14.77
2018-07-20T03:38:52.906Z,14.69
2018-07-20T03:39:52.913Z,14.73
2018-07-20T03:40:52.915Z,14.65
2018-07-20T03:41:52.911Z,14.69
2018-07-20T03:42:52.916Z,14.66
2018-07-20T03:43:52.932Z,14.63
2018-07-20T03:44:52.934Z,14.60
2018-07-20T03:45:52.923Z,14.59
2018-07-20T03:46:52.936Z,14.58
2018-07-20T03:47:52.923Z,14.58
2018-07-20T03:48:52.949Z,14.65
2018-07-20T03:49:52.927Z,14.69
2018-07-20T03:50:52.939Z,14.65
2018-07-20T03:51:52.943Z,14.82
2018-07-20T03:52:52.933Z,14.81
2018-07-20T03:53:52.946Z,14.82
2018-07-20T03:54:52.935Z,14.73
2018-07-20T03:55:52.937Z,14.73
2018-07-20T03:56:52.954Z,14.70
2018-07-20T03:57:52.945Z,14.63
2018-07-20T03:58:52.942Z,14.55
2018-07-20T03:59:52.946Z,14.47
2018-07-20T04:00:53.062Z,14.37
2018-07-20T04:01:52.959Z,14.41
2018-07-20T04:02:52.967Z,14.44
2018-07-20T04:03:52.967Z,14.33
2018-07-20T04:04:52.954Z,14.29
2018-07-20T04:05:52.969Z,14.32
2018-07-20T04:06:52.956Z,14.36
2018-07-20T04:07:52.973Z,14.35
2018-07-20T04:08:52.982Z,14.30
2018-07-20T04:09:52.963Z,14.28
2018-07-20T04:10:52.977Z,14.32
2018-07-20T04:11:52.971Z,14.40
2018-07-20T04:12:52.983Z,14.45
2018-07-20T04:13:52.979Z,14.50
2018-07-20T04:14:52.980Z,14.53
2018-07-20T04:15:52.985Z,14.63
2018-07-20T04:16:52.975Z,14.68
2018-07-20T04:17:52.985Z,14.63
2018-07-20T04:18:52.978Z,14.65
2018-07-20T04:19:53.006Z,14.69
2018-07-20T04:20:52.982Z,14.69
2018-07-20T04:21:52.983Z,14.78
2018-07-20T04:22:52.986Z,14.85
2018-07-20T04:23:52.995Z,14.92
2018-07-20T04:24:53.002Z,14.85
2018-07-20T04:25:52.989Z,14.86
2018-07-20T04:26:52.991Z,14.94
2018-07-20T04:27:52.991Z,14.97
2018-07-20T04:28:52.995Z,14.92
2018-07-20T04:29:53.009Z,14.92
2018-07-20T04:30:53.008Z,14.85
2018-07-20T04:31:53.003Z,14.89
2018-07-20T04:32:53.002Z,14.89
2018-07-20T04:33:53.003Z,14.86
2018-07-20T04:34:53.004Z,14.96
2018-07-20T04:35:53.016Z,14.94
2018-07-20T04:36:53.008Z,15.06
2018-07-20T04:37:53.008Z,15.09
2018-07-20T04:38:53.010Z,15.17
2018-07-20T04:39:53.014Z,15.19
2018-07-20T04:40:53.019Z,15.36
2018-07-20T04:41:53.018Z,15.39
2018-07-20T04:42:53.019Z,15.40
2018-07-20T04:43:53.038Z,15.49
2018-07-20T04:44:53.033Z,15.51
2018-07-20T04:45:53.025Z,15.62
2018-07-20T04:46:53.034Z,15.52
2018-07-20T04:47:53.026Z,15.44
2018-07-20T04:48:53.027Z,15.68
2018-07-20T04:49:53.042Z,15.70
2018-07-20T04:50:53.029Z,15.70
2018-07-20T04:51:53.033Z,15.77
2018-07-20T04:52:53.035Z,15.88
2018-07-20T04:53:53.036Z,15.94
2018-07-20T04:54:53.042Z,15.94
2018-07-20T04:55:53.040Z,16.00
2018-07-20T04:56:53.042Z,15.91
2018-07-20T04:57:53.045Z,15.90
2018-07-20T04:58:53.102Z,15.91
2018-07-20T04:59:53.051Z,15.90
2018-07-20T05:00:53.072Z,15.88
2018-07-20T05:01:53.052Z,16.00
2018-07-20T05:02:53.054Z,16.04
2018-07-20T05:03:53.069Z,15.98
2018-07-20T05:04:53.061Z,15.98
2018-07-20T05:05:53.167Z,16.04
2018-07-20T05:06:53.063Z,16.01
2018-07-20T05:07:53.080Z,16.10
2018-07-20T05:08:53.270Z,16.09
2018-07-20T05:09:53.102Z,16.20
2018-07-20T05:10:53.071Z,16.23
2018-07-20T05:11:53.275Z,16.33
2018-07-20T05:12:53.074Z,16.35
2018-07-20T05:13:53.280Z,16.39
2018-07-20T05:14:53.080Z,16.49
2018-07-20T05:15:53.082Z,16.51
2018-07-20T05:16:53.099Z,16.58
2018-07-20T05:17:53.090Z,16.65
2018-07-20T05:18:53.100Z,16.74
2018-07-20T05:19:53.297Z,16.71
2018-07-20T05:20:53.096Z,16.69
2018-07-20T05:21:53.113Z,16.71
2018-07-20T05:22:53.096Z,16.76
2018-07-20T05:23:53.105Z,16.72
2018-07-20T05:24:53.113Z,16.71
2018-07-20T05:25:53.118Z,16.72
2018-07-20T05:26:53.123Z,16.75
2018-07-20T05:27:53.109Z,16.86
2018-07-20T05:28:53.122Z,16.83
2018-07-20T05:29:53.115Z,16.97
2018-07-20T05:30:53.165Z,17.01
2018-07-20T05:31:53.146Z,16.94
2018-07-20T05:32:53.134Z,17.02
2018-07-20T05:33:53.336Z,17.06
2018-07-20T05:34:53.125Z,17.12
2018-07-20T05:35:53.130Z,17.12
2018-07-20T05:36:53.133Z,17.22
2018-07-20T05:37:53.152Z,17.23
2018-07-20T05:38:53.149Z,17.30
2018-07-20T05:39:53.139Z,17.41
2018-07-20T05:40:53.141Z,17.48
2018-07-20T05:41:53.142Z,17.52
2018-07-20T05:42:53.160Z,17.63
2018-07-20T05:43:53.184Z,17.60
2018-07-20T05:44:53.148Z,17.76
2018-07-20T05:45:53.172Z,17.76
2018-07-20T05:46:53.358Z,17.78
2018-07-20T05:47:53.168Z,17.83
2018-07-20T05:48:53.163Z,17.90
2018-07-20T05:49:53.176Z,18.01
2018-07-20T05:50:53.384Z,18.11
2018-07-20T05:51:53.172Z,18.13
2018-07-20T05:52:53.172Z,18.25
2018-07-20T05:53:53.205Z,18.25
2018-07-20T05:54:53.177Z,18.33
2018-07-20T05:55:53.180Z,18.53
2018-07-20T05:56:53.181Z,18.62
2018-07-20T05:57:53.200Z,18.78
2018-07-20T05:58:53.201Z,18.83
2018-07-20T05:59:53.194Z,18.99
2018-07-20T06:00:53.402Z,19.11
2018-07-20T06:01:53.208Z,19.16
2018-07-20T06:02:53.203Z,19.29
2018-07-20T06:03:53.205Z,19.29
2018-07-20T06:04:53.212Z,19.37
2018-07-20T06:05:53.211Z,19.41
2018-07-20T06:06:53.262Z,19.47
2018-07-20T06:07:53.238Z,19.56
2018-07-20T06:08:53.227Z,19.62
2018-07-20T06:09:53.223Z,19.66
2018-07-20T06:10:53.226Z,19.66
2018-07-20T06:11:53.230Z,19.76
2018-07-20T06:12:53.237Z,19.71
2018-07-20T06:13:53.235Z,19.76
2018-07-20T06:14:53.239Z,19.74
2018-07-20T06:15:53.244Z,19.91
2018-07-20T06:16:53.248Z,19.92
2018-07-20T06:17:53.262Z,20.04
2018-07-20T06:18:53.282Z,20.07
2018-07-20T06:19:53.292Z,20.22
2018-07-20T06:20:53.276Z,20.21
2018-07-20T06:21:53.274Z,20.32
2018-07-20T06:22:53.290Z,20.40
2018-07-20T06:23:53.339Z,20.50
2018-07-20T06:24:53.289Z,20.50
2018-07-20T06:25:53.282Z,20.62
2018-07-20T06:26:53.282Z,20.66
2018-07-20T06:27:53.286Z,20.80
2018-07-20T06:28:53.302Z,20.81
2018-07-20T06:29:53.296Z,20.84
2018-07-20T06:30:53.300Z,20.96
2018-07-20T06:31:53.303Z,20.96
2018-07-20T06:32:53.306Z,20.97
2018-07-20T06:33:53.310Z,21.07
2018-07-20T06:34:53.526Z,21.12
2018-07-20T06:35:53.326Z,21.09
2018-07-20T06:36:53.351Z,21.14
2018-07-20T06:37:53.350Z,21.17
2018-07-20T06:38:53.331Z,21.15
2018-07-20T06:39:53.336Z,21.22
2018-07-20T06:40:53.354Z,21.22
2018-07-20T06:41:53.341Z,21.25
2018-07-20T06:42:53.351Z,21.32
2018-07-20T06:43:53.552Z,21.33
2018-07-20T06:44:53.367Z,21.33
2018-07-20T06:45:53.358Z,21.32
2018-07-20T06:46:53.374Z,21.30
2018-07-20T06:47:53.375Z,21.45
2018-07-20T06:48:53.377Z,21.43
2018-07-20T06:49:53.403Z,21.58
2018-07-20T06:50:53.380Z,21.52
2018-07-20T06:51:53.396Z,21.48
2018-07-20T06:52:53.400Z,21.52
2018-07-20T06:53:53.392Z,21.54
2018-07-20T06:54:53.398Z,21.57
2018-07-20T06:55:53.464Z,21.55
2018-07-20T06:56:53.415Z,21.57
2018-07-20T06:57:53.411Z,21.64
2018-07-20T06:58:53.426Z,21.57
2018-07-20T06:59:53.433Z,21.58
2018-07-20T07:00:53.423Z,21.60
2018-07-20T07:01:53.441Z,21.72
2018-07-20T07:02:53.449Z,21.58
2018-07-20T07:03:53.436Z,21.76
2018-07-20T07:04:53.468Z,21.75
2018-07-20T07:05:53.448Z,21.76
2018-07-20T07:06:53.460Z,21.88
2018-07-20T07:07:53.474Z,21.92
2018-07-20T07:08:53.463Z,21.85
2018-07-20T07:09:53.462Z,21.96
2018-07-20T07:10:53.480Z,21.93
2018-07-20T07:11:53.477Z,22.04
2018-07-20T07:12:53.489Z,22.10
2018-07-20T07:13:53.498Z,22.02
2018-07-20T07:14:53.493Z,22.17
2018-07-20T07:15:53.490Z,22.14
2018-07-20T07:16:53.495Z,22.18
2018-07-20T07:17:53.502Z,22.25
2018-07-20T07:18:53.708Z,22.23
2018-07-20T07:19:53.519Z,22.25
2018-07-20T07:20:53.530Z,22.30
2018-07-20T07:21:53.519Z,22.32
2018-07-20T07:22:53.523Z,22.48
2018-07-20T07:23:53.528Z,22.51
2018-07-20T07:24:53.533Z,22.54
2018-07-20T07:25:53.539Z,22.70
2018-07-20T07:26:53.542Z,22.76
2018-07-20T07:27:53.555Z,22.81
2018-07-20T07:28:53.562Z,22.83
2018-07-20T07:29:53.570Z,22.90
2018-07-20T07:30:53.571Z,22.93
2018-07-20T07:31:53.565Z,22.88
2018-07-20T07:32:53.568Z,22.93
2018-07-20T07:33:53.778Z,22.85
2018-07-20T07:34:53.580Z,22.88
2018-07-20T07:35:53.707Z,23.00
2018-07-20T07:36:53.600Z,23.05
2018-07-20T07:37:53.596Z,23.05
2018-07-20T07:38:53.600Z,22.99
2018-07-20T07:39:53.614Z,23.13
2018-07-20T07:40:53.620Z,23.05
2018-07-20T07:41:53.625Z,23.06
2018-07-20T07:42:53.618Z,23.05
2018-07-20T07:43:53.626Z,23.05
2018-07-20T07:44:53.628Z,23.02
2018-07-20T07:45:53.641Z,23.10
2018-07-20T07:46:53.843Z,23.05
2018-07-20T07:47:53.655Z,23.13
2018-07-20T07:48:53.648Z,23.17
2018-07-20T07:49:53.654Z,23.25
2018-07-20T07:50:53.670Z,23.18
2018-07-20T07:51:53.665Z,23.20
2018-07-20T07:52:53.671Z,23.17
2018-07-20T07:53:53.683Z,23.17
2018-07-20T07:54:53.685Z,23.13
2018-07-20T07:55:53.685Z,23.27
2018-07-20T07:56:53.691Z,23.27
2018-07-20T07:57:53.697Z,23.17
2018-07-20T07:58:53.709Z,23.17
2018-07-20T07:59:53.705Z,23.12
2018-07-20T08:00:53.720Z,23.02
2018-07-20T08:01:53.744Z,23.09
2018-07-20T08:02:53.721Z,23.05
2018-07-20T08:03:53.725Z,22.91
2018-07-20T08:04:53.736Z,22.98
2018-07-20T08:05:53.736Z,22.96
2018-07-20T08:06:53.956Z,22.91
2018-07-20T08:07:53.747Z,23.02
2018-07-20T08:08:53.773Z,23.05
2018-07-20T08:09:53.825Z,23.09
2018-07-20T08:10:53.763Z,23.12
2018-07-20T08:11:53.766Z,23.09
2018-07-20T08:12:53.789Z,23.10
2018-07-20T08:13:53.793Z,23.00
2018-07-20T08:14:53.799Z,23.06
2018-07-20T08:15:53.813Z,23.02
2018-07-20T08:16:53.796Z,23.03
2018-07-20T08:17:53.825Z,22.98
2018-07-20T08:18:53.815Z,23.09
2018-07-20T08:19:53.812Z,23.17
2018-07-20T08:20:53.829Z,23.24
2018-07-20T08:21:53.821Z,23.12
2018-07-20T08:22:53.917Z,23.24
2018-07-20T08:23:53.850Z,23.36
2018-07-20T08:24:54.043Z,23.55
2018-07-20T08:25:53.856Z,23.84
2018-07-20T08:26:53.861Z,23.95
2018-07-20T08:27:53.867Z,24.17
2018-07-20T08:28:53.862Z,24.32
2018-07-20T08:29:53.878Z,24.40
2018-07-20T08:30:53.873Z,24.61
2018-07-20T08:31:53.892Z,24.63
2018-07-20T08:32:53.885Z,24.69
2018-07-20T08:33:53.891Z,24.58
2018-07-20T08:34:53.910Z,24.54
2018-07-20T08:35:53.902Z,24.63
2018-07-20T08:36:53.908Z,24.51
2018-07-20T08:37:53.913Z,24.51
2018-07-20T08:38:53.919Z,24.54
2018-07-20T08:39:53.924Z,24.50
2018-07-20T08:40:53.932Z,24.55
2018-07-20T08:41:53.947Z,24.54
2018-07-20T08:42:53.959Z,24.39
2018-07-20T08:43:53.962Z,24.38
2018-07-20T08:44:53.980Z,24.42
2018-07-20T08:45:53.957Z,24.36
2018-07-20T08:46:54.165Z,24.24
2018-07-20T08:47:53.972Z,24.24
2018-07-20T08:48:53.999Z,24.17
2018-07-20T08:49:53.982Z,24.23
2018-07-20T08:50:54.187Z,24.11
2018-07-20T08:51:54.217Z,24.10
2018-07-20T08:52:53.997Z,24.11
2018-07-20T08:53:54.049Z,24.17
2018-07-20T08:54:54.008Z,24.43
2018-07-20T08:55:54.220Z,24.60
2018-07-20T08:56:54.018Z,24.60
2018-07-20T08:57:54.034Z,24.60
2018-07-20T08:58:54.105Z,24.84
2018-07-20T08:59:54.088Z,24.81
2018-07-20T09:00:54.086Z,24.89
2018-07-20T09:01:54.046Z,24.81
2018-07-20T09:02:54.051Z,24.88
2018-07-20T09:03:54.261Z,24.70
2018-07-20T09:04:54.074Z,24.60
2018-07-20T09:05:54.284Z,24.47
2018-07-20T09:06:54.085Z,24.33
2018-07-20T09:07:54.285Z,24.29
2018-07-20T09:08:54.086Z,24.21
2018-07-20T09:09:54.292Z,24.21
2018-07-20T09:10:54.097Z,24.03
2018-07-20T09:11:54.112Z,23.96
2018-07-20T09:12:54.111Z,23.88
2018-07-20T09:13:54.319Z,23.87
2018-07-20T09:14:54.333Z,23.81
2018-07-20T09:15:54.126Z,23.86
2018-07-20T09:16:54.140Z,23.81
2018-07-20T09:17:54.135Z,23.86
2018-07-20T09:18:54.141Z,23.81
2018-07-20T09:19:54.147Z,23.88
2018-07-20T09:20:54.409Z,23.92
2018-07-20T09:21:54.373Z,24.05
2018-07-20T09:22:54.377Z,24.08
2018-07-20T09:23:54.379Z,24.23
2018-07-20T09:24:54.176Z,24.14
2018-07-20T09:25:54.192Z,24.26
2018-07-20T09:26:54.196Z,24.54
2018-07-20T09:27:54.197Z,24.54
2018-07-20T09:28:54.199Z,24.38
2018-07-20T09:29:54.211Z,24.39
2018-07-20T09:30:54.209Z,24.39
2018-07-20T09:31:54.224Z,24.42
2018-07-20T09:32:54.217Z,24.40
2018-07-20T09:33:54.223Z,24.40
2018-07-20T09:34:54.243Z,24.26
2018-07-20T09:35:54.441Z,24.17
2018-07-20T09:36:54.238Z,24.20
2018-07-20T09:37:54.451Z,24.20
2018-07-20T09:38:54.252Z,24.06
2018-07-20T09:39:54.265Z,24.16
2018-07-20T09:40:54.262Z,24.08
2018-07-20T09:41:54.470Z,24.13
2018-07-20T09:42:54.278Z,24.14
2018-07-20T09:43:54.279Z,24.06
2018-07-20T09:44:54.486Z,24.08
2018-07-20T09:45:54.286Z,24.01
2018-07-20T09:46:54.294Z,24.05
2018-07-20T09:47:54.313Z,24.02
2018-07-20T09:48:54.330Z,24.10
2018-07-20T09:49:54.511Z,24.20
2018-07-20T09:50:54.314Z,24.17
2018-07-20T09:51:54.321Z,24.24
2018-07-20T09:52:54.344Z,24.30
2018-07-20T09:53:54.348Z,24.60
2018-07-20T09:54:54.351Z,24.47
2018-07-20T09:55:54.554Z,24.54
2018-07-20T09:56:54.347Z,24.57
2018-07-20T09:57:54.383Z,24.57
2018-07-20T09:58:54.359Z,24.55
2018-07-20T09:59:54.470Z,24.63
2018-07-20T10:00:54.379Z,24.63
2018-07-20T10:01:54.390Z,24.58
2018-07-20T10:02:54.392Z,24.58
2018-07-20T10:03:54.414Z,24.58
2018-07-20T10:04:54.421Z,24.60
2018-07-20T10:05:54.614Z,24.77
2018-07-20T10:06:54.403Z,24.74
2018-07-20T10:07:54.409Z,24.77
2018-07-20T10:08:54.426Z,24.86
2018-07-20T10:09:54.439Z,24.86
2018-07-20T10:10:54.434Z,24.99
2018-07-20T10:11:54.656Z,25.07
2018-07-20T10:12:54.468Z,25.01
2018-07-20T10:13:54.442Z,25.26
2018-07-20T10:14:54.446Z,25.28
2018-07-20T10:15:54.455Z,25.18
2018-07-20T10:16:54.458Z,25.21
2018-07-20T10:17:54.478Z,25.22
2018-07-20T10:18:54.496Z,25.35
2018-07-20T10:19:54.475Z,25.43
2018-07-20T10:20:54.484Z,25.36
2018-07-20T10:21:54.496Z,25.31
2018-07-20T10:22:54.490Z,25.31
2018-07-20T10:23:54.506Z,25.31
2018-07-20T10:24:54.505Z,25.44
2018-07-20T10:25:54.522Z,25.36
2018-07-20T10:26:54.514Z,25.41
2018-07-20T10:27:54.543Z,25.26
2018-07-20T10:28:54.730Z,25.29
2018-07-20T10:29:54.549Z,25.25
2018-07-20T10:30:54.538Z,25.18
2018-07-20T10:31:54.756Z,25.14
2018-07-20T10:32:54.561Z,24.93
2018-07-20T10:33:54.570Z,25.06
2018-07-20T10:34:54.580Z,25.03
2018-07-20T10:35:54.588Z,24.96
2018-07-20T10:36:54.572Z,25.07
2018-07-20T10:37:54.577Z,24.96
2018-07-20T10:38:54.584Z,25.04
2018-07-20T10:39:54.615Z,25.03
2018-07-20T10:40:54.798Z,25.10
2018-07-20T10:41:54.603Z,25.07
2018-07-20T10:42:54.608Z,25.06
2018-07-20T10:43:54.642Z,25.18
2018-07-20T10:44:54.617Z,25.21
2018-07-20T10:45:54.625Z,25.31
2018-07-20T10:46:54.651Z,25.26
2018-07-20T10:47:54.637Z,25.46
2018-07-20T10:48:54.648Z,25.46
2018-07-20T10:49:54.664Z,25.46
2018-07-20T10:50:54.668Z,25.60
2018-07-20T10:51:54.863Z,25.63
2018-07-20T10:52:54.679Z,25.72
2018-07-20T10:53:54.684Z,25.70
2018-07-20T10:54:54.676Z,25.65
2018-07-20T10:55:54.684Z,25.59
2018-07-20T10:56:54.693Z,25.50
2018-07-20T10:57:54.699Z,25.41
2018-07-20T10:58:54.715Z,25.43
2018-07-20T10:59:54.710Z,25.47
2018-07-20T11:00:54.716Z,25.51
2018-07-20T11:01:54.734Z,25.58
2018-07-20T11:02:54.728Z,25.55
2018-07-20T11:03:54.938Z,25.50
2018-07-20T11:04:54.949Z,25.53
2018-07-20T11:05:54.758Z,25.41
2018-07-20T11:06:54.764Z,25.38
2018-07-20T11:07:54.769Z,25.46
2018-07-20T11:08:54.778Z,25.40
2018-07-20T11:09:54.768Z,25.35
2018-07-20T11:10:54.775Z,25.33
2018-07-20T11:11:54.804Z,25.31
2018-07-20T11:12:54.789Z,25.35
2018-07-20T11:13:54.793Z,25.48
2018-07-20T11:14:54.808Z,25.58
2018-07-20T11:15:55.006Z,25.60
2018-07-20T11:16:54.811Z,25.60
2018-07-20T11:17:54.816Z,25.53
2018-07-20T11:18:54.837Z,25.58
2018-07-20T11:19:54.850Z,25.68
2018-07-20T11:20:54.836Z,25.68
2018-07-20T11:21:54.840Z,25.77
2018-07-20T11:22:54.854Z,25.81
2018-07-20T11:23:54.852Z,25.77
2018-07-20T11:24:54.860Z,25.73
2018-07-20T11:25:54.875Z,25.75
2018-07-20T11:26:54.885Z,25.81
2018-07-20T11:27:54.894Z,25.88
2018-07-20T11:28:54.889Z,25.85
2018-07-20T11:29:54.937Z,25.83
2018-07-20T11:30:54.897Z,25.87
2018-07-20T11:31:54.904Z,25.81
2018-07-20T11:32:54.922Z,25.84
2018-07-20T11:33:54.915Z,25.90
2018-07-20T11:34:54.936Z,25.83
2018-07-20T11:35:54.927Z,25.83
2018-07-20T11:36:54.944Z,25.93
2018-07-20T11:37:54.941Z,25.90
2018-07-20T11:38:54.956Z,25.93
2018-07-20T11:39:54.966Z,26.06
2018-07-20T11:40:54.977Z,26.09
2018-07-20T11:41:55.059Z,26.05
2018-07-20T11:42:54.985Z,26.25
2018-07-20T11:43:54.993Z,26.36
2018-07-20T11:44:55.004Z,26.40
2018-07-20T11:45:54.992Z,26.29
2018-07-20T11:46:55.205Z,26.40
2018-07-20T11:47:55.003Z,26.47
2018-07-20T11:48:55.012Z,26.48
2018-07-20T11:49:55.052Z,26.52
2018-07-20T11:50:55.237Z,26.48
2018-07-20T11:51:55.028Z,26.63
2018-07-20T11:52:55.035Z,26.65
2018-07-20T11:53:55.243Z,26.68
2018-07-20T11:54:55.067Z,26.68
2018-07-20T11:55:55.082Z,26.71
2018-07-20T11:56:55.072Z,26.81
2018-07-20T11:57:55.270Z,26.83
2018-07-20T11:58:55.071Z,26.84
2018-07-20T11:59:55.084Z,26.78
2018-07-20T12:00:55.100Z,26.68
2018-07-20T12:01:55.145Z,26.48
2018-07-20T12:02:55.099Z,26.44
2018-07-20T12:03:55.117Z,26.62
2018-07-20T12:04:55.121Z,26.85
2018-07-20T12:05:55.115Z,26.85
2018-07-20T12:06:55.376Z,26.93
2018-07-20T12:07:55.154Z,27.02
2018-07-20T12:08:55.143Z,27.02
2018-07-20T12:09:55.153Z,26.89
2018-07-20T12:10:55.166Z,26.68
2018-07-20T12:11:55.358Z,26.58
2018-07-20T12:12:55.363Z,26.48
2018-07-20T12:13:55.198Z,26.51
2018-07-20T12:14:55.185Z,26.40
2018-07-20T12:15:55.191Z,26.37
2018-07-20T12:16:55.198Z,26.36
2018-07-20T12:17:55.190Z,26.33
2018-07-20T12:18:55.248Z,26.40
2018-07-20T12:19:55.420Z,26.37
2018-07-20T12:20:55.213Z,26.37
2018-07-20T12:21:55.239Z,26.21
2018-07-20T12:22:55.239Z,26.19
2018-07-20T12:23:55.231Z,26.19
2018-07-20T12:24:55.249Z,26.37
2018-07-20T12:25:55.258Z,26.48
2018-07-20T12:26:55.283Z,26.59
2018-07-20T12:27:55.259Z,26.56
2018-07-20T12:28:55.265Z,26.59
2018-07-20T12:29:55.281Z,26.58
2018-07-20T12:30:55.279Z,26.63
2018-07-20T12:31:55.296Z,26.59
2018-07-20T12:32:55.315Z,26.59
2018-07-20T12:33:55.309Z,26.77
2018-07-20T12:34:55.334Z,26.77
2018-07-20T12:35:55.309Z,26.59
2018-07-20T12:36:55.326Z,26.71
2018-07-20T12:37:55.321Z,26.51
2018-07-20T12:38:55.328Z,26.47
2018-07-20T12:39:55.345Z,26.51
2018-07-20T12:40:55.350Z,26.58
2018-07-20T12:41:55.549Z,26.75
2018-07-20T12:42:55.355Z,26.84
2018-07-20T12:43:55.361Z,26.97
2018-07-20T12:44:55.370Z,26.84
2018-07-20T12:45:55.385Z,26.88
2018-07-20T12:46:55.601Z,26.80
2018-07-20T12:47:55.606Z,26.90
2018-07-20T12:48:55.393Z,27.03
2018-07-20T12:49:55.416Z,27.03
2018-07-20T12:50:55.610Z,27.14
2018-07-20T12:51:55.413Z,27.11
2018-07-20T12:52:55.625Z,27.00